Time;durP1;ratioP1;P1;durP2;ratioP2;P2;SDS_P1;SDS_P2;PMS_P1;PMS_P2;Temp;Humidity;BMP_temperature;BMP_pressure;BME280_temperature;BME280_humidity;BME280_pressure;Samples;Min_cycle;Max_cycle;Signal;HPM_P1;HPM_P2
2022/12/17 13:08:49;;;;;;;40.27;24.37;;;;;;;-6.72;59.27;100536.16;10474973;28;20569;-66
2022/12/17 13:13:55;;;;;;;42.93;26.20;;;;;;;-6.78;59.93;100504.25;10485228;28;20252;-66
2022/12/17 13:19:02;;;;;;;47.23;28.63;;;;;;;-6.75;59.11;100570.97;10474095;28;20309;-67
2022/12/17 13:24:21;;;;;;;41.60;25.73;;;;;;;-6.59;58.88;100537.44;10485958;28;20593;-66
2022/12/17 13:29:34;;;;;;;52.87;31.17;;;;;;;-7.09;59.40;100590.34;10461677;28;20753;-67
2022/12/17 13:34:39;;;;;;;52.60;31.20;;;;;;;-6.48;58.84;100517.06;10480186;28;20724;-66
2022/12/17 13:40:10;;;;;;;37.60;25.20;;;;;;;-7.35;59.75;100612.00;10480624;28;20236;-66
2022/12/17 13:45:17;;;;;;;46.17;29.73;;;;;;;-6.89;59.27;100592.28;10464537;28;20227;-66
2022/12/17 13:50:28;;;;;;;64.60;45.87;;;;;;;-6.79;60.13;100530.34;9588562;28;10000450;-66
2022/12/17 13:55:37;;;;;;;45.57;29.40;;;;;;;-6.77;59.11;100584.06;10422129;28;20327;-65
2022/12/17 14:00:38;;;;;;;43.10;26.93;;;;;;;-7.12;59.49;100603.44;10434018;28;20675;-64
2022/12/17 14:05:43;;;;;;;44.37;28.33;;;;;;;-6.53;58.89;100550.25;10432581;28;20842;-67
2022/12/17 14:12:20;;;;;;;50.40;32.63;;;;;;;-7.31;59.92;100626.63;10422505;28;20261;-66
2022/12/17 14:16:17;;;;;;;45.97;27.67;;;;;;;-6.83;58.87;100581.66;10474099;28;20241;-66
2022/12/17 14:21:20;;;;;;;40.83;26.27;;;;;;;-6.90;58.86;100605.34;10410875;28;20320;-66
2022/12/17 14:26:22;;;;;;;64.63;41.37;;;;;;;-6.95;59.98;100567.31;10428059;28;20231;-66
2022/12/17 14:31:29;;;;;;;41.70;26.83;;;;;;;-6.93;59.51;100577.66;10411957;28;20333;-66
2022/12/17 14:36:34;;;;;;;59.33;45.07;;;;;;;-7.11;59.84;100599.97;10427433;28;20234;-69
2022/12/17 14:42:38;;;;;;;42.53;29.90;;;;;;;-7.37;60.88;100613.78;10432919;28;20246;-67
2022/12/17 14:47:22;;;;;;;54.57;40.53;;;;;;;-6.68;60.21;100537.78;10396190;28;20726;-66
2022/12/17 14:52:35;;;;;;;42.40;25.43;;;;;;;-6.38;59.57;100538.41;10413652;28;20635;-66
2022/12/17 14:57:36;;;;;;;49.90;32.33;;;;;;;-6.74;59.94;100579.63;10419425;28;20245;-66
2022/12/17 15:02:38;;;;;;;39.87;24.00;;;;;;;-7.58;61.32;100649.97;10426092;28;20229;-69
2022/12/17 15:07:40;;;;;;;41.63;25.60;;;;;;;-7.21;61.19;100608.97;10433912;28;20264;-63
2022/12/17 15:12:42;;;;;;;39.37;24.20;;;;;;;-7.43;61.38;100642.56;10413866;28;20311;-66
2022/12/17 15:17:44;;;;;;;38.20;24.43;;;;;;;-6.35;60.08;100527.03;10438398;28;20963;-64
2022/12/17 15:22:46;;;;;;;39.77;24.50;;;;;;;-6.78;60.14;100574.53;10416441;28;20242;-64
2022/12/17 15:27:48;;;;;;;41.07;25.73;;;;;;;-7.22;61.07;100602.91;10434235;28;20281;-65
2022/12/17 15:32:49;;;;;;;38.67;26.13;;;;;;;-7.48;61.26;100624.53;10409636;28;20246;-69
2022/12/17 15:37:51;;;;;;;42.03;26.23;;;;;;;-7.94;62.51;100672.69;10413547;28;20309;-66
2022/12/17 15:43:11;;;;;;;35.67;25.07;;;;;;;-7.22;61.14;100586.44;10445350;28;20234;-69
2022/12/17 15:48:16;;;;;;;39.60;25.97;;;;;;;-7.27;61.42;100573.59;10401547;28;20330;-66
2022/12/17 15:53:17;;;;;;;40.57;26.43;;;;;;;-6.63;59.91;100521.06;10425836;28;20259;-63
2022/12/17 15:58:19;;;;;;;42.90;26.80;;;;;;;-7.26;60.93;100588.31;10423622;28;20690;-63
2022/12/17 16:03:21;;;;;;;42.97;25.90;;;;;;;-7.31;61.43;100566.78;10416205;28;20233;-63
2022/12/17 16:08:23;;;;;;;38.93;24.60;;;;;;;-7.52;61.16;100605.59;10431056;28;20241;-63
2022/12/17 16:13:24;;;;;;;46.57;26.27;;;;;;;-7.81;61.49;100642.84;10422875;28;20724;-63
2022/12/17 16:18:26;;;;;;;42.30;25.63;;;;;;;-7.82;62.37;100625.56;10441952;28;20252;-65
2022/12/17 16:23:28;;;;;;;46.17;27.67;;;;;;;-7.59;62.36;100591.06;10418964;28;20248;-64
2022/12/17 16:28:34;;;;;;;41.70;25.03;;;;;;;-8.28;62.76;100696.97;10417211;28;20967;-63
2022/12/17 16:33:39;;;;;;;48.93;26.37;;;;;;;-7.63;63.45;100567.84;10405003;28;20244;-63
2022/12/17 16:38:49;;;;;;;50.63;27.27;;;;;;;-7.19;61.54;100555.97;10414949;28;20253;-63
2022/12/17 16:43:51;;;;;;;47.30;28.87;;;;;;;-7.03;62.11;100522.50;10416016;28;20234;-63
2022/12/17 16:48:54;;;;;;;59.17;31.83;;;;;;;-7.37;62.49;100561.78;10419554;28;20281;-63
2022/12/17 16:53:57;;;;;;;56.60;28.47;;;;;;;-7.12;62.53;100545.38;10413115;28;20251;-64
2022/12/17 16:59:03;;;;;;;51.30;27.80;;;;;;;-7.80;62.88;100625.50;10428129;28;20237;-62
2022/12/17 17:04:07;;;;;;;54.73;30.80;;;;;;;-6.92;61.01;100549.91;10414834;28;20251;-64
2022/12/17 17:09:09;;;;;;;50.60;28.83;;;;;;;-8.32;63.65;100685.81;10442854;28;20270;-64
2022/12/17 17:14:11;;;;;;;49.83;29.00;;;;;;;-7.13;62.01;100549.72;10424524;28;20298;-62
2022/12/17 17:19:13;;;;;;;51.53;27.10;;;;;;;-7.86;62.78;100659.47;10423241;28;20748;-63
2022/12/17 17:24:16;;;;;;;50.93;31.00;;;;;;;-7.68;62.94;100606.97;10424216;28;20238;-63
2022/12/17 17:29:22;;;;;;;60.80;32.57;;;;;;;-7.29;61.42;100610.97;10412349;28;20694;-63
2022/12/17 17:34:24;;;;;;;57.10;30.37;;;;;;;-6.81;60.76;100551.22;10437718;28;20250;-63
2022/12/17 17:39:26;;;;;;;55.43;31.30;;;;;;;-8.03;63.00;100673.78;10421807;28;20240;-63
2022/12/17 17:44:28;;;;;;;52.47;29.97;;;;;;;-7.56;61.24;100657.72;10423395;28;20337;-63
2022/12/17 17:49:29;;;;;;;54.83;29.03;;;;;;;-7.09;60.79;100605.97;10421698;28;20252;-63
2022/12/17 17:54:31;;;;;;;52.43;29.97;;;;;;;-6.85;60.63;100569.59;10410118;28;20660;-64
2022/12/17 17:59:33;;;;;;;52.03;30.30;;;;;;;-7.28;60.71;100636.06;10424164;28;20238;-63
2022/12/17 18:04:35;;;;;;;59.43;31.83;;;;;;;-7.78;61.56;100693.91;10416693;28;20240;-64
2022/12/17 18:09:37;;;;;;;62.33;30.63;;;;;;;-8.60;62.89;100758.34;10433255;28;20734;-64
2022/12/17 18:14:38;;;;;;;71.97;32.67;;;;;;;-7.67;62.62;100613.84;10413886;28;20267;-62
2022/12/17 18:19:58;;;;;;;62.23;33.23;;;;;;;-8.85;63.53;100797.00;10429006;28;20358;-63
2022/12/17 18:25:00;;;;;;;57.73;30.40;;;;;;;-7.79;61.52;100677.44;10408393;28;20750;-63
2022/12/17 18:30:01;;;;;;;60.40;31.00;;;;;;;-8.36;62.76;100735.28;10413472;28;20320;-64
2022/12/17 18:35:03;;;;;;;65.70;33.83;;;;;;;-9.03;64.45;100780.97;10425624;28;20231;-63
2022/12/17 18:40:06;;;;;;;59.37;31.37;;;;;;;-8.19;63.47;100660.38;10427295;28;20250;-63
2022/12/17 18:45:13;;;;;;;59.37;31.60;;;;;;;-8.25;62.78;100696.91;10418908;28;20229;-63
2022/12/17 18:50:14;;;;;;;61.23;30.80;;;;;;;-7.64;61.85;100629.34;10428464;28;20239;-64
2022/12/17 18:55:16;;;;;;;69.47;34.27;;;;;;;-8.13;62.04;100726.91;10419669;28;20232;-64
2022/12/17 19:00:18;;;;;;;64.83;31.27;;;;;;;-7.75;61.73;100678.22;10421759;28;20279;-64
2022/12/17 19:05:19;;;;;;;63.00;31.37;;;;;;;-7.40;60.06;100681.50;10412696;28;20246;-63
2022/12/17 19:10:21;;;;;;;60.80;30.50;;;;;;;-7.26;59.80;100686.28;10409501;28;20263;-64
2022/12/17 19:15:23;;;;;;;65.40;31.40;;;;;;;-6.89;59.54;100631.31;10416355;28;21513;-63
2022/12/17 19:20:24;;;;;;;54.97;29.97;;;;;;;-6.51;58.43;100631.75;10421001;28;20233;-63
2022/12/17 19:25:26;;;;;;;63.03;32.20;;;;;;;-7.28;60.17;100678.53;10418792;28;20228;-63
2022/12/17 19:30:28;;;;;;;63.97;34.03;;;;;;;-7.11;59.43;100708.38;10419900;28;20244;-63
2022/12/17 19:35:29;;;;;;;70.17;33.90;;;;;;;-6.88;59.70;100646.03;10480426;28;20732;-63
2022/12/17 19:40:33;;;;;;;65.53;32.80;;;;;;;-6.15;58.05;100607.06;10485706;28;20229;-64
2022/12/17 19:45:35;;;;;;;62.87;34.33;;;;;;;-7.70;59.87;100768.16;10448536;28;20232;-63
2022/12/17 19:50:37;;;;;;;60.63;31.43;;;;;;;-6.40;58.18;100637.44;10479489;28;20232;-64
2022/12/17 19:55:38;;;;;;;65.80;33.30;;;;;;;-7.15;58.77;100747.47;10467271;28;20316;-63
2022/12/17 20:00:40;;;;;;;68.07;36.13;;;;;;;-7.77;60.03;100776.16;10467160;28;20649;-64
2022/12/17 20:05:43;;;;;;;79.40;38.90;;;;;;;-7.32;60.48;100679.53;10460799;28;20300;-63
2022/12/17 20:10:45;;;;;;;65.97;33.97;;;;;;;-7.14;59.58;100698.91;10457207;28;20235;-64
2022/12/17 20:15:47;;;;;;;74.27;35.17;;;;;;;-6.87;59.26;100676.38;10476736;28;21157;-67
2022/12/17 20:20:48;;;;;;;72.00;36.53;;;;;;;-6.80;58.43;100669.22;10450767;28;20237;-63
2022/12/17 20:26:03;;;;;;;67.47;35.77;;;;;;;-7.66;59.45;100752.47;10438670;28;20244;-65
2022/12/17 20:31:06;;;;;;;75.50;37.17;;;;;;;-7.79;59.48;100778.78;10471360;28;20245;-64
2022/12/17 20:36:10;;;;;;;69.60;35.73;;;;;;;-6.90;58.57;100671.25;10464306;28;20770;-65
2022/12/17 20:41:15;;;;;;;65.87;35.30;;;;;;;-8.14;60.10;100797.91;10468529;28;20236;-66
2022/12/17 20:46:19;;;;;;;61.60;32.43;;;;;;;-7.11;58.68;100684.94;10448438;28;20293;-65
2022/12/17 20:51:23;;;;;;;63.00;33.20;;;;;;;-7.04;58.28;100666.50;10431846;28;20918;-65
2022/12/17 20:56:28;;;;;;;61.37;32.63;;;;;;;-8.41;60.37;100795.13;10424424;28;20249;-67
2022/12/17 21:01:32;;;;;;;58.07;29.30;;;;;;;-6.56;57.45;100644.09;10435385;28;20257;-65
2022/12/17 21:06:46;;;;;;;59.83;30.87;;;;;;;-7.94;59.78;100761.88;10472613;28;20732;-65
2022/12/17 21:11:47;;;;;;;56.50;31.37;;;;;;;-7.94;58.75;100828.56;10451630;28;20235;-66
2022/12/17 21:16:49;;;;;;;62.57;30.90;;;;;;;-7.18;58.49;100708.56;10474378;28;20235;-65
2022/12/17 21:21:51;;;;;;;60.07;31.07;;;;;;;-7.20;58.94;100694.75;10463013;28;20255;-65
2022/12/17 21:26:52;;;;;;;62.43;30.73;;;;;;;-7.63;59.31;100765.41;10471981;28;20235;-66
2022/12/17 21:31:54;;;;;;;63.03;30.90;;;;;;;-6.94;58.71;100698.28;10467513;28;20620;-65
2022/12/17 21:36:56;;;;;;;56.93;30.37;;;;;;;-7.02;57.65;100750.56;10456860;28;20657;-65
2022/12/17 21:47:18;;;;;;;55.17;30.00;;;;;;;-7.89;59.54;100831.91;10416804;28;20293;-65
2022/12/17 21:52:20;;;;;;;58.20;31.53;;;;;;;-8.39;60.47;100859.97;10430315;28;20239;-65
2022/12/17 21:57:21;;;;;;;65.63;30.27;;;;;;;-7.51;59.13;100768.47;10426393;28;20224;-65
2022/12/17 22:02:23;;;;;;;61.30;29.50;;;;;;;-8.20;60.78;100798.09;10415210;28;20232;-64
2022/12/17 22:07:25;;;;;;;65.23;31.33;;;;;;;-8.05;59.97;100800.28;10424869;28;20261;-67
2022/12/17 22:17:49;;;;;;;57.13;29.60;;;;;;;-7.46;59.08;100725.91;10428682;28;20237;-66
2022/12/17 22:22:51;;;;;;;51.87;28.17;;;;;;;-7.80;58.74;100799.63;10418332;28;20248;-67
2022/12/17 22:27:53;;;;;;;65.27;33.37;;;;;;;-7.53;58.39;100749.47;10423027;28;20326;-64
2022/12/17 22:33:01;;;;;;;60.40;31.73;;;;;;;-6.92;57.90;100680.03;10422667;28;20301;-65
2022/12/17 22:38:11;;;;;;;60.03;32.90;;;;;;;-7.39;58.12;100720.47;10405806;28;20839;-65
2022/12/17 22:43:34;;;;;;;61.37;30.33;;;;;;;-7.37;57.61;100743.81;10420352;28;20233;-66
2022/12/17 22:48:57;;;;;;;64.20;32.13;;;;;;;-7.85;58.36;100785.91;10412074;28;20319;-66
2022/12/17 22:54:01;;;;;;;58.23;31.13;;;;;;;-8.39;58.06;100885.94;10420954;28;20227;-67
2022/12/17 22:59:04;;;;;;;49.87;28.10;;;;;;;-7.53;58.02;100731.28;10430451;28;20326;-66
2022/12/17 23:04:05;;;;;;;57.13;29.37;;;;;;;-7.01;56.99;100710.66;10414516;28;20228;-66
2022/12/17 23:09:07;;;;;;;50.87;28.03;;;;;;;-7.94;57.57;100836.38;10425833;28;20237;-65
2022/12/17 23:14:09;;;;;;;47.93;28.07;;;;;;;-8.43;59.01;100843.63;10412277;28;20639;-65
2022/12/17 23:19:12;;;;;;;50.60;27.70;;;;;;;-7.16;56.23;100743.19;10424785;28;20254;-66
2022/12/17 23:24:13;;;;;;;45.70;27.00;;;;;;;-8.13;57.47;100836.84;10422962;28;20228;-63
2022/12/17 23:29:15;;;;;;;49.07;25.67;;;;;;;-9.08;60.07;100902.13;10405980;28;20235;-63
2022/12/17 23:34:20;;;;;;;54.07;27.60;;;;;;;-7.64;58.28;100735.94;10418636;28;20286;-63
2022/12/17 23:39:22;;;;;;;52.73;27.27;;;;;;;-7.75;56.55;100837.59;10410583;28;20290;-63
2022/12/17 23:44:23;;;;;;;52.70;27.17;;;;;;;-7.66;57.46;100763.72;10420660;28;20316;-63
2022/12/17 23:49:25;;;;;;;46.03;25.83;;;;;;;-7.56;56.66;100774.72;10426984;28;20240;-64
2022/12/17 23:54:27;;;;;;;48.13;25.70;;;;;;;-7.03;56.09;100719.38;10407283;28;20235;-64
2022/12/17 23:59:28;;;;;;;42.00;23.73;;;;;;;-7.07;55.73;100736.84;10425445;28;20233;-63
